createdAt,value
2018-03-11T00:00:04.298Z,60.33
2018-03-11T00:00:35.922Z,60.45
2018-03-11T00:01:07.550Z,60.57
2018-03-11T00:01:39.178Z,60.61
2018-03-11T00:02:10.846Z,60.53
2018-03-11T00:02:42.470Z,60.43
2018-03-11T00:03:14.275Z,60.61
2018-03-11T00:03:45.954Z,60.54
2018-03-11T00:04:17.585Z,60.42
2018-03-11T00:04:49.315Z,60.59
2018-03-11T00:05:20.950Z,60.41
2018-03-11T00:05:52.573Z,60.42
2018-03-11T00:06:24.202Z,60.56
2018-03-11T00:06:55.826Z,60.54
2018-03-11T00:07:27.455Z,60.56
2018-03-11T00:07:59.081Z,60.30
2018-03-11T00:08:30.702Z,60.51
2018-03-11T00:09:02.472Z,60.46
2018-03-11T00:09:34.118Z,60.37
2018-03-11T00:10:05.748Z,60.44
2018-03-11T00:10:37.374Z,60.52
2018-03-11T00:11:09.001Z,60.35
2018-03-11T00:11:40.626Z,60.25
2018-03-11T00:12:12.290Z,60.36
2018-03-11T00:12:43.954Z,60.28
2018-03-11T00:13:15.578Z,60.41
2018-03-11T00:13:47.257Z,60.24
2018-03-11T00:14:18.887Z,60.35
2018-03-11T00:14:50.510Z,60.29
2018-03-11T00:15:22.139Z,60.30
2018-03-11T00:15:53.770Z,60.30
2018-03-11T00:16:25.434Z,60.27
2018-03-11T00:16:57.061Z,60.44
2018-03-11T00:17:28.687Z,60.27
2018-03-11T00:18:00.319Z,60.25
2018-03-11T00:18:31.999Z,60.26
2018-03-11T00:19:03.626Z,60.17
2018-03-11T00:19:35.254Z,60.38
2018-03-11T00:20:06.883Z,60.27
2018-03-11T00:20:38.514Z,60.31
2018-03-11T00:21:10.142Z,60.27
2018-03-11T00:21:41.771Z,60.29
2018-03-11T00:22:13.394Z,60.35
2018-03-11T00:22:45.018Z,60.34
2018-03-11T00:23:16.646Z,60.33
2018-03-11T00:23:48.314Z,60.31
2018-03-11T00:24:19.939Z,60.32
2018-03-11T00:24:51.561Z,60.27
2018-03-11T00:25:23.186Z,60.22
2018-03-11T00:25:54.814Z,60.17
2018-03-11T00:26:26.447Z,60.31
2018-03-11T00:26:58.078Z,60.38
2018-03-11T00:27:29.698Z,60.16
2018-03-11T00:28:01.322Z,60.44
2018-03-11T00:28:32.946Z,60.41
2018-03-11T00:29:04.618Z,60.27
2018-03-11T00:29:36.241Z,60.27
2018-03-11T00:30:07.874Z,60.49
2018-03-11T00:30:39.502Z,60.41
2018-03-11T00:31:11.129Z,60.51
2018-03-11T00:31:42.802Z,60.59
2018-03-11T00:32:14.430Z,60.48
2018-03-11T00:32:46.058Z,60.59
2018-03-11T00:33:17.681Z,60.62
2018-03-11T00:33:49.302Z,60.70
2018-03-11T00:34:20.925Z,60.63
2018-03-11T00:34:52.554Z,60.69
2018-03-11T00:35:24.185Z,60.65
2018-03-11T00:35:55.810Z,60.58
2018-03-11T00:36:27.433Z,60.59
2018-03-11T00:36:59.064Z,60.62
2018-03-11T00:37:30.690Z,60.68
2018-03-11T00:38:02.313Z,60.61
2018-03-11T00:38:33.962Z,60.58
2018-03-11T00:39:05.645Z,60.74
2018-03-11T00:39:37.266Z,60.56
2018-03-11T00:40:08.890Z,60.52
2018-03-11T00:40:40.518Z,60.45
2018-03-11T00:41:12.142Z,60.45
2018-03-11T00:41:43.772Z,60.38
2018-03-11T00:42:15.408Z,60.42
2018-03-11T00:42:47.033Z,60.53
2018-03-11T00:43:18.661Z,60.53
2018-03-11T00:43:50.331Z,60.63
2018-03-11T00:44:21.953Z,60.56
2018-03-11T00:44:53.582Z,60.61
2018-03-11T00:45:25.210Z,60.70
2018-03-11T00:45:56.833Z,60.73
2018-03-11T00:46:28.486Z,60.79
2018-03-11T00:47:00.110Z,60.79
2018-03-11T00:47:31.738Z,60.87
2018-03-11T00:48:03.402Z,60.82
2018-03-11T00:48:35.030Z,60.83
2018-03-11T00:49:06.654Z,60.82
2018-03-11T00:49:38.274Z,60.87
2018-03-11T00:50:09.947Z,60.82
2018-03-11T00:50:41.582Z,60.89
2018-03-11T00:51:13.215Z,60.87
2018-03-11T00:51:44.842Z,60.88
2018-03-11T00:52:16.470Z,60.97
2018-03-11T00:52:48.093Z,60.90
2018-03-11T00:53:19.721Z,60.93
2018-03-11T00:53:51.352Z,61.03
2018-03-11T00:54:22.977Z,61.29
2018-03-11T00:54:54.606Z,61.31
2018-03-11T00:55:26.274Z,61.04
2018-03-11T00:55:57.898Z,60.94
2018-03-11T00:56:29.521Z,60.95
2018-03-11T00:57:01.145Z,60.83
2018-03-11T00:57:32.781Z,60.84
2018-03-11T00:58:04.406Z,60.82
2018-03-11T00:58:36.034Z,60.51
2018-03-11T00:59:07.661Z,60.37
2018-03-11T00:59:39.291Z,60.50
2018-03-11T01:00:10.923Z,60.59
2018-03-11T01:00:42.545Z,60.60
2018-03-11T01:01:14.818Z,60.66
2018-03-11T01:01:46.455Z,60.57
2018-03-11T01:02:18.078Z,60.62
2018-03-11T01:02:49.702Z,60.55
2018-03-11T01:03:21.329Z,60.51
2018-03-11T01:03:52.958Z,60.46
2018-03-11T01:04:24.647Z,60.57
2018-03-11T01:04:56.281Z,60.45
2018-03-11T01:05:27.910Z,60.50
2018-03-11T01:05:59.537Z,60.48
2018-03-11T01:06:31.167Z,60.45
2018-03-11T01:07:02.798Z,60.50
2018-03-11T01:07:34.423Z,60.47
2018-03-11T01:08:06.053Z,60.52
2018-03-11T01:08:37.674Z,60.60
2018-03-11T01:09:09.301Z,60.55
2018-03-11T01:09:40.978Z,60.61
2018-03-11T01:10:12.602Z,60.65
2018-03-11T01:10:44.225Z,60.84
2018-03-11T01:11:15.846Z,60.69
2018-03-11T01:11:47.474Z,60.65
2018-03-11T01:12:19.102Z,60.62
2018-03-11T01:12:50.723Z,60.72
2018-03-11T01:13:22.373Z,60.55
2018-03-11T01:13:54.007Z,60.64
2018-03-11T01:14:25.646Z,60.70
2018-03-11T01:14:57.330Z,60.89
2018-03-11T01:15:28.957Z,60.78
2018-03-11T01:16:00.587Z,60.73
2018-03-11T01:16:32.214Z,60.75
2018-03-11T01:17:03.838Z,60.91
2018-03-11T01:17:35.461Z,60.77
2018-03-11T01:18:07.086Z,60.79
2018-03-11T01:18:38.759Z,60.76
2018-03-11T01:19:10.387Z,60.83
2018-03-11T01:19:42.021Z,60.66
2018-03-11T01:20:13.651Z,60.74
2018-03-11T01:20:45.274Z,60.89
2018-03-11T01:21:16.906Z,60.99
2018-03-11T01:21:48.532Z,60.88
2018-03-11T01:22:20.166Z,60.96
2018-03-11T01:22:51.839Z,60.89
2018-03-11T01:23:23.471Z,60.95
2018-03-11T01:23:55.102Z,61.04
2018-03-11T01:24:26.733Z,61.00
2018-03-11T01:24:58.358Z,61.02
2018-03-11T01:25:29.982Z,60.87
2018-03-11T01:26:01.610Z,61.23
2018-03-11T01:26:33.238Z,61.14
2018-03-11T01:27:04.861Z,61.09
2018-03-11T01:27:36.491Z,61.13
2018-03-11T01:28:08.167Z,61.18
2018-03-11T01:28:39.790Z,61.18
2018-03-11T01:29:11.419Z,61.16
2018-03-11T01:29:43.041Z,61.19
2018-03-11T01:30:14.671Z,61.17
2018-03-11T01:30:46.297Z,61.23
2018-03-11T01:31:17.926Z,61.17
2018-03-11T01:31:49.555Z,61.13
2018-03-11T01:32:21.178Z,61.03
2018-03-11T01:32:52.811Z,61.13
2018-03-11T01:33:24.482Z,61.08
2018-03-11T01:33:56.105Z,61.16
2018-03-11T01:34:27.734Z,61.11
2018-03-11T01:34:59.363Z,61.15
2018-03-11T01:35:30.998Z,61.15
2018-03-11T01:36:02.630Z,61.16
2018-03-11T01:36:34.262Z,61.12
2018-03-11T01:37:05.894Z,61.10
2018-03-11T01:37:37.522Z,61.19
2018-03-11T01:38:09.189Z,61.16
2018-03-11T01:38:40.822Z,61.12
2018-03-11T01:39:12.454Z,61.14
2018-03-11T01:39:44.090Z,61.13
2018-03-11T01:40:15.767Z,61.14
2018-03-11T01:40:47.394Z,61.16
2018-03-11T01:41:19.027Z,61.40
2018-03-11T01:41:50.654Z,61.17
2018-03-11T01:42:22.278Z,61.43
2018-03-11T01:42:53.910Z,61.39
2018-03-11T01:43:25.538Z,61.39
2018-03-11T01:43:57.161Z,61.37
2018-03-11T01:44:28.786Z,61.25
2018-03-11T01:45:00.410Z,61.76
2018-03-11T01:45:32.155Z,61.72
2018-03-11T01:46:03.782Z,61.72
2018-03-11T01:46:35.413Z,61.72
2018-03-11T01:47:07.035Z,61.82
2018-03-11T01:47:38.662Z,61.71
2018-03-11T01:48:10.290Z,61.92
2018-03-11T01:48:41.913Z,61.77
2018-03-11T01:49:13.542Z,61.90
2018-03-11T01:49:45.174Z,61.94
2018-03-11T01:50:16.854Z,61.79
2018-03-11T01:50:48.487Z,61.79
2018-03-11T01:51:20.110Z,61.96
2018-03-11T01:51:51.739Z,61.77
2018-03-11T01:52:23.366Z,61.95
2018-03-11T01:52:54.995Z,61.93
2018-03-11T01:53:26.622Z,61.80
2018-03-11T01:53:58.254Z,61.94
2018-03-11T01:54:29.886Z,61.96
2018-03-11T01:55:01.513Z,62.00
2018-03-11T01:55:33.182Z,61.95
2018-03-11T01:56:04.810Z,62.14
2018-03-11T01:56:36.438Z,62.04
2018-03-11T01:57:08.062Z,61.72
2018-03-11T01:57:39.685Z,61.85
2018-03-11T01:58:11.310Z,61.88
2018-03-11T01:58:42.939Z,61.84
2018-03-11T01:59:14.566Z,61.97
2018-03-11T01:59:46.214Z,61.90
2018-03-11T02:00:17.887Z,62.11
2018-03-11T02:00:49.510Z,62.12
2018-03-11T02:01:21.185Z,62.06
2018-03-11T02:01:52.815Z,62.01
2018-03-11T02:02:24.446Z,62.12
2018-03-11T02:02:56.075Z,62.00
2018-03-11T02:03:27.701Z,62.02
2018-03-11T02:03:59.322Z,62.18
2018-03-11T02:04:30.956Z,62.09
2018-03-11T02:05:02.590Z,62.29
2018-03-11T02:05:34.217Z,62.43
2018-03-11T02:06:05.898Z,62.30
2018-03-11T02:06:37.522Z,62.37
2018-03-11T02:07:09.145Z,62.30
2018-03-11T02:07:40.770Z,62.10
2018-03-11T02:08:12.390Z,62.26
2018-03-11T02:08:44.014Z,62.32
2018-03-11T02:09:15.642Z,62.19
2018-03-11T02:09:47.266Z,62.21
2018-03-11T02:10:18.895Z,62.35
2018-03-11T02:10:50.572Z,62.17
2018-03-11T02:11:22.446Z,62.31
2018-03-11T02:11:54.072Z,62.34
2018-03-11T02:12:25.706Z,62.20
2018-03-11T02:12:57.332Z,62.15
2018-03-11T02:13:28.958Z,62.22
2018-03-11T02:14:00.594Z,62.23
2018-03-11T02:14:32.219Z,62.19
2018-03-11T02:15:03.846Z,62.17
2018-03-11T02:15:35.478Z,62.18
2018-03-11T02:16:07.114Z,62.18
2018-03-11T02:16:38.778Z,62.06
2018-03-11T02:17:10.433Z,62.06
2018-03-11T02:17:42.053Z,62.10
2018-03-11T02:18:13.674Z,62.01
2018-03-11T02:18:45.302Z,62.01
2018-03-11T02:19:16.931Z,62.04
2018-03-11T02:19:48.554Z,62.02
2018-03-11T02:20:20.182Z,61.93
2018-03-11T02:20:51.806Z,61.97
2018-03-11T02:21:23.430Z,61.86
2018-03-11T02:21:55.102Z,61.95
2018-03-11T02:22:26.730Z,61.95
2018-03-11T02:22:58.354Z,62.01
2018-03-11T02:23:29.982Z,62.07
2018-03-11T02:24:01.709Z,61.88
2018-03-11T02:24:33.378Z,61.96
2018-03-11T02:25:05.002Z,61.96
2018-03-11T02:25:36.674Z,61.97
2018-03-11T02:26:08.301Z,61.90
2018-03-11T02:26:39.921Z,61.80
2018-03-11T02:27:11.543Z,61.86
2018-03-11T02:27:43.165Z,61.81
2018-03-11T02:28:14.787Z,61.74
2018-03-11T02:28:46.419Z,61.74
2018-03-11T02:29:18.086Z,61.66
2018-03-11T02:29:49.715Z,61.73
2018-03-11T02:30:21.339Z,61.79
2018-03-11T02:30:52.963Z,61.84
2018-03-11T02:31:24.631Z,61.79
2018-03-11T02:31:56.259Z,61.89
2018-03-11T02:32:27.895Z,61.86
2018-03-11T02:32:59.518Z,61.88
2018-03-11T02:33:31.195Z,61.97
2018-03-11T02:34:02.827Z,62.09
2018-03-11T02:34:34.458Z,61.94
2018-03-11T02:35:06.082Z,61.90
2018-03-11T02:35:37.711Z,61.95
2018-03-11T02:36:09.334Z,62.12
2018-03-11T02:36:41.003Z,62.12
2018-03-11T02:37:12.626Z,62.19
2018-03-11T02:37:44.250Z,62.15
2018-03-11T02:38:15.870Z,62.15
2018-03-11T02:38:47.495Z,62.10
2018-03-11T02:39:19.118Z,62.52
2018-03-11T02:39:50.748Z,62.22
2018-03-11T02:40:22.406Z,62.16
2018-03-11T02:40:54.074Z,62.09
2018-03-11T02:41:25.699Z,62.25
2018-03-11T02:41:57.371Z,62.27
2018-03-11T02:42:28.993Z,62.27
2018-03-11T02:43:00.615Z,62.24
2018-03-11T02:43:32.243Z,62.24
2018-03-11T02:44:03.878Z,62.24
2018-03-11T02:44:35.550Z,62.26
2018-03-11T02:45:07.179Z,62.29
2018-03-11T02:45:38.802Z,62.31
2018-03-11T02:46:10.427Z,62.34
2018-03-11T02:46:42.055Z,62.27
2018-03-11T02:47:13.727Z,62.32
2018-03-11T02:47:45.354Z,62.30
2018-03-11T02:48:17.018Z,62.33
2018-03-11T02:48:48.652Z,62.53
2018-03-11T02:49:20.289Z,62.39
2018-03-11T02:49:51.930Z,62.45
2018-03-11T02:50:23.559Z,62.30
2018-03-11T02:50:55.186Z,62.38
2018-03-11T02:51:26.805Z,62.24
2018-03-11T02:51:58.432Z,62.13
2018-03-11T02:52:30.067Z,62.72
2018-03-11T02:53:01.691Z,62.10
2018-03-11T02:53:33.326Z,62.15
2018-03-11T02:54:04.949Z,62.46
2018-03-11T02:54:36.622Z,62.47
2018-03-11T02:55:08.243Z,62.20
2018-03-11T02:55:39.879Z,62.29
2018-03-11T02:56:11.542Z,62.49
2018-03-11T02:56:43.171Z,62.13
2018-03-11T02:57:14.798Z,62.30
2018-03-11T02:57:46.423Z,62.31
2018-03-11T02:58:18.058Z,62.28
2018-03-11T02:58:49.690Z,62.15
2018-03-11T02:59:21.317Z,62.03
2018-03-11T02:59:52.942Z,62.37
2018-03-11T03:00:24.614Z,62.50
2018-03-11T03:00:56.242Z,62.39
2018-03-11T03:01:27.874Z,62.47
2018-03-11T03:01:59.502Z,62.61
2018-03-11T03:02:31.134Z,62.69
2018-03-11T03:03:02.766Z,62.77
2018-03-11T03:03:34.390Z,62.97
2018-03-11T03:04:06.019Z,63.02
2018-03-11T03:04:37.642Z,63.05
2018-03-11T03:05:09.270Z,63.49
2018-03-11T03:05:40.954Z,63.56
2018-03-11T03:06:12.583Z,63.12
2018-03-11T03:06:44.206Z,63.84
2018-03-11T03:07:15.855Z,63.57
2018-03-11T03:07:47.478Z,63.50
2018-03-11T03:08:19.098Z,63.45
2018-03-11T03:08:50.723Z,63.82
2018-03-11T03:09:22.349Z,63.67
2018-03-11T03:09:53.971Z,63.38
2018-03-11T03:10:25.598Z,63.48
2018-03-11T03:10:57.291Z,63.44
2018-03-11T03:11:28.919Z,63.31
2018-03-11T03:12:00.546Z,63.45
2018-03-11T03:12:32.174Z,63.32
2018-03-11T03:13:03.803Z,63.41
2018-03-11T03:13:35.426Z,63.46
2018-03-11T03:14:07.050Z,63.23
2018-03-11T03:14:38.670Z,63.45
2018-03-11T03:15:10.298Z,63.42
2018-03-11T03:15:41.931Z,63.58
2018-03-11T03:16:13.593Z,63.47
2018-03-11T03:16:45.213Z,63.61
2018-03-11T03:17:16.842Z,63.31
2018-03-11T03:17:48.470Z,63.25
2018-03-11T03:18:20.098Z,63.29
2018-03-11T03:18:51.726Z,63.45
2018-03-11T03:19:23.346Z,63.42
2018-03-11T03:19:54.978Z,63.45
2018-03-11T03:20:26.610Z,63.21
2018-03-11T03:20:58.239Z,63.12
2018-03-11T03:21:29.870Z,63.26
2018-03-11T03:22:01.502Z,63.12
2018-03-11T03:22:33.121Z,63.33
2018-03-11T03:23:04.794Z,63.12
2018-03-11T03:23:36.426Z,63.47
2018-03-11T03:24:08.062Z,63.49
2018-03-11T03:24:39.689Z,63.32
2018-03-11T03:25:11.359Z,63.24
2018-03-11T03:25:42.983Z,63.40
2018-03-11T03:26:14.606Z,63.36
2018-03-11T03:26:46.235Z,63.25
2018-03-11T03:27:17.858Z,63.55
2018-03-11T03:27:49.483Z,63.31
2018-03-11T03:28:21.154Z,63.34
2018-03-11T03:28:52.777Z,63.31
2018-03-11T03:29:24.401Z,63.44
2018-03-11T03:29:56.026Z,63.28
2018-03-11T03:30:27.649Z,63.31
2018-03-11T03:30:59.326Z,63.33
2018-03-11T03:31:30.951Z,63.36
2018-03-11T03:32:02.590Z,63.22
2018-03-11T03:32:34.218Z,63.18
2018-03-11T03:33:05.848Z,63.13
2018-03-11T03:33:37.478Z,63.36
2018-03-11T03:34:09.110Z,63.41
2018-03-11T03:34:40.739Z,63.51
2018-03-11T03:35:12.370Z,63.22
2018-03-11T03:35:43.998Z,63.19
2018-03-11T03:36:15.626Z,63.36
2018-03-11T03:36:47.255Z,63.36
2018-03-11T03:37:18.938Z,63.25
2018-03-11T03:37:50.567Z,63.35
2018-03-11T03:38:22.195Z,63.48
2018-03-11T03:38:53.834Z,63.54
2018-03-11T03:39:25.458Z,63.35
2018-03-11T03:39:57.082Z,63.27
2018-03-11T03:40:28.711Z,63.15
2018-03-11T03:41:00.337Z,63.47
2018-03-11T03:41:31.966Z,63.30
2018-03-11T03:42:03.589Z,63.34
2018-03-11T03:42:35.254Z,63.40
2018-03-11T03:43:06.874Z,63.54
2018-03-11T03:43:38.502Z,63.47
2018-03-11T03:44:10.177Z,63.48
2018-03-11T03:44:41.802Z,63.53
2018-03-11T03:45:13.421Z,63.61
2018-03-11T03:45:45.042Z,63.67
2018-03-11T03:46:16.665Z,63.79
2018-03-11T03:46:48.290Z,63.87
2018-03-11T03:47:19.915Z,63.72
2018-03-11T03:47:51.538Z,63.83
2018-03-11T03:48:23.178Z,63.87
2018-03-11T03:48:54.850Z,63.96
2018-03-11T03:49:26.498Z,63.75
2018-03-11T03:49:58.177Z,63.63
2018-03-11T03:50:29.801Z,63.69
2018-03-11T03:51:01.426Z,63.87
2018-03-11T03:51:33.054Z,63.95
2018-03-11T03:52:04.682Z,63.81
2018-03-11T03:52:36.301Z,63.61
2018-03-11T03:53:07.926Z,63.79
2018-03-11T03:53:39.549Z,63.67
2018-03-11T03:54:11.178Z,63.73
2018-03-11T03:54:42.806Z,63.68
2018-03-11T03:55:14.478Z,63.62
2018-03-11T03:55:46.101Z,63.48
2018-03-11T03:56:17.730Z,63.52
2018-03-11T03:56:49.350Z,63.47
2018-03-11T03:57:21.050Z,63.56
2018-03-11T03:57:52.679Z,63.51
2018-03-11T03:58:24.302Z,63.64
2018-03-11T03:58:55.926Z,63.43
2018-03-11T03:59:27.549Z,63.53
2018-03-11T03:59:59.218Z,63.40
2018-03-11T04:00:30.841Z,63.41
2018-03-11T04:01:02.470Z,63.43
2018-03-11T04:01:34.095Z,63.47
2018-03-11T04:02:05.743Z,63.37
2018-03-11T04:02:37.366Z,63.48
2018-03-11T04:03:09.034Z,63.64
2018-03-11T04:03:40.658Z,63.48
2018-03-11T04:04:12.286Z,63.59
2018-03-11T04:04:43.919Z,63.63
2018-03-11T04:05:15.546Z,63.66
2018-03-11T04:05:47.174Z,63.41
2018-03-11T04:06:18.843Z,63.44
2018-03-11T04:06:50.466Z,63.49
2018-03-11T04:07:22.090Z,63.52
2018-03-11T04:07:53.719Z,63.57
2018-03-11T04:08:25.345Z,63.46
2018-03-11T04:08:56.966Z,63.32
2018-03-11T04:09:28.631Z,63.39
2018-03-11T04:10:00.262Z,63.39
2018-03-11T04:10:31.890Z,63.42
2018-03-11T04:11:03.518Z,63.28
2018-03-11T04:11:35.139Z,63.34
2018-03-11T04:12:06.762Z,63.38
2018-03-11T04:12:38.394Z,63.20
2018-03-11T04:13:10.018Z,63.14
2018-03-11T04:13:41.642Z,63.17
2018-03-11T04:14:13.265Z,63.17
2018-03-11T04:14:44.930Z,63.15
2018-03-11T04:15:16.558Z,63.06
2018-03-11T04:15:48.182Z,63.03
2018-03-11T04:16:19.809Z,63.16
2018-03-11T04:16:51.490Z,63.19
2018-03-11T04:17:23.118Z,63.26
2018-03-11T04:17:54.750Z,63.24
2018-03-11T04:18:26.459Z,63.18
2018-03-11T04:18:58.067Z,63.16
2018-03-11T04:19:29.713Z,63.18
2018-03-11T04:20:01.342Z,63.09
2018-03-11T04:20:32.974Z,63.08
2018-03-11T04:21:04.598Z,63.17
2018-03-11T04:21:36.225Z,63.03
2018-03-11T04:22:07.889Z,63.14
2018-03-11T04:22:39.562Z,63.06
2018-03-11T04:23:11.191Z,63.04
2018-03-11T04:23:42.819Z,63.10
2018-03-11T04:24:14.442Z,63.08
2018-03-11T04:24:46.106Z,63.17
2018-03-11T04:25:17.774Z,63.06
2018-03-11T04:25:49.403Z,63.10
2018-03-11T04:26:21.035Z,63.03
2018-03-11T04:26:52.662Z,63.09
2018-03-11T04:27:24.291Z,62.99
2018-03-11T04:27:55.918Z,63.02
2018-03-11T04:28:27.546Z,62.98
2018-03-11T04:28:59.174Z,62.92
2018-03-11T04:29:30.798Z,62.89
2018-03-11T04:30:02.488Z,63.08
2018-03-11T04:30:34.114Z,63.17
2018-03-11T04:31:05.741Z,63.07
2018-03-11T04:31:37.362Z,63.07
2018-03-11T04:32:08.986Z,62.96
2018-03-11T04:32:40.605Z,63.00
2018-03-11T04:33:12.225Z,62.97
2018-03-11T04:33:43.850Z,62.83
2018-03-11T04:34:15.477Z,62.92
2018-03-11T04:34:47.102Z,62.83
2018-03-11T04:35:18.774Z,62.82
2018-03-11T04:35:50.407Z,62.93
2018-03-11T04:36:22.030Z,62.96
2018-03-11T04:36:53.655Z,62.81
2018-03-11T04:37:25.285Z,63.04
2018-03-11T04:37:57.171Z,62.85
2018-03-11T04:38:28.794Z,62.93
2018-03-11T04:39:00.422Z,62.92
2018-03-11T04:39:32.049Z,62.95
2018-03-11T04:40:03.684Z,62.80
2018-03-11T04:40:35.370Z,63.01
2018-03-11T04:41:06.999Z,63.20
2018-03-11T04:41:38.630Z,62.96
2018-03-11T04:42:10.257Z,63.00
2018-03-11T04:42:41.877Z,63.16
2018-03-11T04:43:13.505Z,63.11
2018-03-11T04:43:45.131Z,63.24
2018-03-11T04:44:16.755Z,63.37
2018-03-11T04:44:48.383Z,63.34
2018-03-11T04:45:20.010Z,63.37
2018-03-11T04:45:51.634Z,63.45
2018-03-11T04:46:23.261Z,63.44
2018-03-11T04:46:54.889Z,63.38
2018-03-11T04:47:26.514Z,63.34
2018-03-11T04:47:58.142Z,63.42
2018-03-11T04:48:29.769Z,63.54
2018-03-11T04:49:01.434Z,63.54
2018-03-11T04:49:33.063Z,63.55
2018-03-11T04:50:04.694Z,63.55
2018-03-11T04:50:36.322Z,63.60
2018-03-11T04:51:07.950Z,63.64
2018-03-11T04:51:39.578Z,63.70
2018-03-11T04:52:11.202Z,63.49
2018-03-11T04:52:42.831Z,63.63
2018-03-11T04:53:14.515Z,63.58
2018-03-11T04:53:46.198Z,63.66
2018-03-11T04:54:17.830Z,63.74
2018-03-11T04:54:49.458Z,63.57
2018-03-11T04:55:21.086Z,63.60
2018-03-11T04:55:52.714Z,63.74
2018-03-11T04:56:24.342Z,63.58
2018-03-11T04:56:55.961Z,63.61
2018-03-11T04:57:27.591Z,63.70
2018-03-11T04:57:59.217Z,63.71
2018-03-11T04:58:30.841Z,63.57
2018-03-11T04:59:02.506Z,63.77
2018-03-11T04:59:34.182Z,63.69
2018-03-11T05:00:05.815Z,63.62
2018-03-11T05:00:37.445Z,63.65
2018-03-11T05:01:09.065Z,63.60
2018-03-11T05:01:40.694Z,63.59
2018-03-11T05:02:12.318Z,63.59
2018-03-11T05:02:43.941Z,63.50
2018-03-11T05:03:15.570Z,63.46
2018-03-11T05:03:47.189Z,63.62
2018-03-11T05:04:18.813Z,63.58
2018-03-11T05:04:50.481Z,63.57
2018-03-11T05:05:22.102Z,63.58
2018-03-11T05:05:53.722Z,63.50
2018-03-11T05:06:25.393Z,63.53
2018-03-11T05:06:57.014Z,63.52
2018-03-11T05:07:28.641Z,63.47
2018-03-11T05:08:00.274Z,63.62
2018-03-11T05:08:31.907Z,63.51
2018-03-11T05:09:03.557Z,63.53
2018-03-11T05:09:35.186Z,63.50
2018-03-11T05:10:06.813Z,63.58
2018-03-11T05:10:38.438Z,63.53
2018-03-11T05:11:10.062Z,63.63
2018-03-11T05:11:41.742Z,63.52
2018-03-11T05:12:13.375Z,63.44
2018-03-11T05:12:45.002Z,63.38
2018-03-11T05:13:16.629Z,63.57
2018-03-11T05:13:48.258Z,63.58
2018-03-11T05:14:19.882Z,63.53
2018-03-11T05:14:51.565Z,63.61
2018-03-11T05:15:23.166Z,63.57
2018-03-11T05:15:54.789Z,63.50
2018-03-11T05:16:26.410Z,63.43
2018-03-11T05:16:58.172Z,63.46
2018-03-11T05:17:29.802Z,63.46
2018-03-11T05:18:01.431Z,63.61
2018-03-11T05:18:33.054Z,63.56
2018-03-11T05:19:04.682Z,63.55
2018-03-11T05:19:36.305Z,63.48
2018-03-11T05:20:07.930Z,63.46
2018-03-11T05:20:39.555Z,63.42
2018-03-11T05:21:11.185Z,63.55
2018-03-11T05:21:42.814Z,63.50
2018-03-11T05:22:14.487Z,63.54
2018-03-11T05:22:46.114Z,63.66
2018-03-11T05:23:17.743Z,63.60
2018-03-11T05:23:49.366Z,63.67
2018-03-11T05:24:21.008Z,63.57
2018-03-11T05:24:52.641Z,63.51
2018-03-11T05:25:24.266Z,63.66
2018-03-11T05:25:55.899Z,63.70
2018-03-11T05:26:27.530Z,63.83
2018-03-11T05:26:59.211Z,63.79
2018-03-11T05:27:30.837Z,63.65
2018-03-11T05:28:02.465Z,63.86
2018-03-11T05:28:34.094Z,63.65
2018-03-11T05:29:05.718Z,63.63
2018-03-11T05:29:37.342Z,63.78
2018-03-11T05:30:08.975Z,63.79
2018-03-11T05:30:40.606Z,63.71
2018-03-11T05:31:12.230Z,63.95
2018-03-11T05:31:43.853Z,63.79
2018-03-11T05:32:15.522Z,63.78
2018-03-11T05:32:47.146Z,64.01
2018-03-11T05:33:18.770Z,63.63
2018-03-11T05:33:50.442Z,63.79
2018-03-11T05:34:22.066Z,63.84
2018-03-11T05:34:53.694Z,63.77
2018-03-11T05:35:25.323Z,63.88
2018-03-11T05:35:57.035Z,63.74
2018-03-11T05:36:28.663Z,63.64
2018-03-11T05:37:00.295Z,63.69
2018-03-11T05:37:31.918Z,63.83
2018-03-11T05:38:03.538Z,63.81
2018-03-11T05:38:35.166Z,63.78
2018-03-11T05:39:06.840Z,63.70
2018-03-11T05:39:38.462Z,63.78
2018-03-11T05:40:10.090Z,63.76
2018-03-11T05:40:41.715Z,63.71
2018-03-11T05:41:13.342Z,63.74
2018-03-11T05:41:44.974Z,63.72
2018-03-11T05:42:16.593Z,63.65
2018-03-11T05:42:48.234Z,63.76
2018-03-11T05:43:19.914Z,63.81
2018-03-11T05:43:51.542Z,63.77
2018-03-11T05:44:23.166Z,63.90
2018-03-11T05:44:54.797Z,63.69
2018-03-11T05:45:26.428Z,63.62
2018-03-11T05:45:58.050Z,63.56
2018-03-11T05:46:29.673Z,63.63
2018-03-11T05:47:01.307Z,63.62
2018-03-11T05:47:32.929Z,63.56
2018-03-11T05:48:04.558Z,63.63
2018-03-11T05:48:36.235Z,63.54
2018-03-11T05:49:07.863Z,63.67
2018-03-11T05:49:39.495Z,63.47
2018-03-11T05:50:11.117Z,63.57
2018-03-11T05:50:42.741Z,63.67
2018-03-11T05:51:14.366Z,63.58
2018-03-11T05:51:45.998Z,63.48
2018-03-11T05:52:17.630Z,63.57
2018-03-11T05:52:49.254Z,63.47
2018-03-11T05:53:20.888Z,63.49
2018-03-11T05:53:52.564Z,63.47
2018-03-11T05:54:24.190Z,63.56
2018-03-11T05:54:55.813Z,63.44
2018-03-11T05:55:27.434Z,63.54
2018-03-11T05:55:59.066Z,63.51
2018-03-11T05:56:30.742Z,63.43
2018-03-11T05:57:02.371Z,63.49
2018-03-11T05:57:34.002Z,63.44
2018-03-11T05:58:05.625Z,63.55
2018-03-11T05:58:37.250Z,63.64
2018-03-11T05:59:08.874Z,63.61
2018-03-11T05:59:40.501Z,63.64
2018-03-11T06:00:12.130Z,63.59
2018-03-11T06:00:43.753Z,63.46
2018-03-11T06:01:15.373Z,63.63
2018-03-11T06:01:47.050Z,63.62
2018-03-11T06:02:18.678Z,63.57
2018-03-11T06:02:50.305Z,63.56
2018-03-11T06:03:21.938Z,63.54
2018-03-11T06:03:53.567Z,63.49
2018-03-11T06:04:25.207Z,63.54
2018-03-11T06:04:56.829Z,63.71
2018-03-11T06:05:28.453Z,63.92
2018-03-11T06:06:00.083Z,63.79
2018-03-11T06:06:31.710Z,63.92
2018-03-11T06:07:03.339Z,64.13
2018-03-11T06:07:35.001Z,64.15
2018-03-11T06:08:06.692Z,64.06
2018-03-11T06:08:38.291Z,64.09
2018-03-11T06:09:09.919Z,64.21
2018-03-11T06:09:41.546Z,64.26
2018-03-11T06:10:13.173Z,64.31
2018-03-11T06:10:44.802Z,64.28
2018-03-11T06:11:16.426Z,64.24
2018-03-11T06:11:48.110Z,64.18
2018-03-11T06:12:19.739Z,64.25
2018-03-11T06:12:51.370Z,64.33
2018-03-11T06:13:22.998Z,64.28
2018-03-11T06:13:54.626Z,64.45
2018-03-11T06:14:26.255Z,64.42
2018-03-11T06:14:57.882Z,64.56
2018-03-11T06:15:29.506Z,64.52
2018-03-11T06:16:01.261Z,64.61
2018-03-11T06:16:32.894Z,64.47
2018-03-11T06:17:04.601Z,64.50
2018-03-11T06:17:36.226Z,64.56
2018-03-11T06:18:07.846Z,64.65
2018-03-11T06:18:39.474Z,64.54
2018-03-11T06:19:11.182Z,64.63
2018-03-11T06:19:42.814Z,64.52
2018-03-11T06:20:15.204Z,64.62
2018-03-11T06:20:46.843Z,64.55
2018-03-11T06:21:18.477Z,64.49
2018-03-11T06:21:50.114Z,64.63
2018-03-11T06:22:21.791Z,64.52
2018-03-11T06:22:53.425Z,64.57
2018-03-11T06:23:25.055Z,64.70
2018-03-11T06:23:56.678Z,64.58
2018-03-11T06:24:28.310Z,64.61
2018-03-11T06:25:00.898Z,64.53
2018-03-11T06:25:32.523Z,65.16
2018-03-11T06:26:04.182Z,64.58
2018-03-11T06:26:35.818Z,64.70
2018-03-11T06:27:07.450Z,64.53
2018-03-11T06:27:39.073Z,64.56
2018-03-11T06:28:10.702Z,64.46
2018-03-11T06:28:42.331Z,64.49
2018-03-11T06:29:13.957Z,64.66
2018-03-11T06:29:45.581Z,64.53
2018-03-11T06:30:17.320Z,64.64
2018-03-11T06:30:48.874Z,64.45
2018-03-11T06:31:20.554Z,64.33
2018-03-11T06:31:52.230Z,64.36
2018-03-11T06:32:23.911Z,64.38
2018-03-11T06:32:55.514Z,64.51
2018-03-11T06:33:27.293Z,64.48
2018-03-11T06:33:58.922Z,64.53
2018-03-11T06:34:30.611Z,64.34
2018-03-11T06:35:02.250Z,64.47
2018-03-11T06:35:33.886Z,64.47
2018-03-11T06:36:05.505Z,64.34
2018-03-11T06:36:37.234Z,64.37
2018-03-11T06:37:08.965Z,64.26
2018-03-11T06:37:40.594Z,64.36
2018-03-11T06:38:12.235Z,64.37
2018-03-11T06:38:43.858Z,64.34
2018-03-11T06:39:15.486Z,64.27
2018-03-11T06:39:47.115Z,64.23
2018-03-11T06:40:18.742Z,64.22
2018-03-11T06:40:50.365Z,64.15
2018-03-11T06:41:21.998Z,64.17
2018-03-11T06:41:53.622Z,64.22
2018-03-11T06:42:25.246Z,64.28
2018-03-11T06:42:56.869Z,64.22
2018-03-11T06:43:28.494Z,64.14
2018-03-11T06:44:00.229Z,64.21
2018-03-11T06:44:31.915Z,64.41
2018-03-11T06:45:03.543Z,64.19
2018-03-11T06:45:35.170Z,64.27
2018-03-11T06:46:06.934Z,64.20
2018-03-11T06:46:38.566Z,64.10
2018-03-11T06:47:10.198Z,64.04